Motbridge, South Carolina
Current Conditions -  °F | °C
As of 7:55 AM on Wednesday 26 Nov 2014 (Local Time) from KSMS Reporting Station
Light Rain Light Rain  
Wind Chill: 50°   Ceiling: 1400
Heat Index: 50°   Visibility: 6mi
Dew Point: 50°   Wind: 8mph
Humidity: 100%   Direction: 340°NNW
Pressure: 29.93"   Gusts: NA
Location:  34.0395°N, 80.1095°W
Report Text: KSMS 261255Z AUTO 34007KT 6SM -RA SCT003 BKN014 OVC043 10/10 A2993 RMK AO2
Loading
Personal Weather Stations






























Interactive Weather Map New forecast layout! Learn more

10-Day Weather Forecast

Advertisements
Track Severe Weather on mobile